Time;durP1;ratioP1;P1;durP2;ratioP2;P2;SDS_P1;SDS_P2;PMS_P1;PMS_P2;Temp;Humidity;BMP_temperature;BMP_pressure;BME280_temperature;BME280_humidity;BME280_pressure;Samples;Min_cycle;Max_cycle;Signal;HPM_P1;HPM_P2
2022/11/18 00:01:09;;;;;;;4.72;2.50;;;9.90;85.90;;;;;;5038101;28;20017;-70
2022/11/18 00:03:35;;;;;;;5.60;2.80;;;9.90;85.90;;;;;;5044446;28;20032;-67
2022/11/18 00:06:01;;;;;;;3.85;2.30;;;9.90;86.00;;;;;;5035753;28;20520;-70
2022/11/18 00:08:27;;;;;;;4.38;2.50;;;9.90;85.90;;;;;;5043687;28;20584;-69
2022/11/18 00:10:53;;;;;;;5.95;2.55;;;9.90;85.90;;;;;;5038500;28;20032;-70
2022/11/18 00:16:06;;;;;;;6.20;2.70;;;9.90;86.10;;;;;;5034617;28;20561;-69
2022/11/18 00:18:32;;;;;;;6.57;2.60;;;9.90;86.30;;;;;;5037752;28;20427;-71
2022/11/18 00:21:08;;;;;;;3.35;2.25;;;9.90;86.40;;;;;;5037816;28;20033;-71
2022/11/18 00:23:34;;;;;;;5.10;2.45;;;9.90;86.30;;;;;;5038507;28;20108;-71
2022/11/18 00:26:05;;;;;;;5.18;2.40;;;10.00;86.30;;;;;;5039605;28;20030;-71
2022/11/18 00:28:32;;;;;;;3.53;2.08;;;10.00;86.30;;;;;;5042043;28;20075;-72
2022/11/18 00:31:03;;;;;;;5.65;2.47;;;10.00;86.20;;;;;;5046813;28;20025;-71
2022/11/18 00:33:29;;;;;;;2.85;2.00;;;10.00;86.30;;;;;;5038349;28;20549;-71
2022/11/18 00:35:55;;;;;;;4.90;2.38;;;10.00;86.20;;;;;;5040384;28;20017;-70
2022/11/18 00:38:21;;;;;;;4.03;1.85;;;10.00;86.00;;;;;;5039857;28;20507;-70
2022/11/18 00:40:46;;;;;;;4.65;2.22;;;10.00;86.00;;;;;;5037373;28;20029;-69
2022/11/18 00:43:12;;;;;;;3.50;2.05;;;10.00;85.90;;;;;;5040130;28;20335;-70
2022/11/18 00:45:37;;;;;;;4.00;2.20;;;10.10;85.80;;;;;;5036684;28;20481;-69
2022/11/18 00:48:03;;;;;;;3.53;2.13;;;10.10;85.80;;;;;;5039978;28;20514;-69
2022/11/18 00:50:29;;;;;;;6.38;2.33;;;10.10;85.80;;;;;;5040426;28;20053;-69
2022/11/18 00:52:54;;;;;;;5.03;1.98;;;10.10;85.70;;;;;;5038015;28;20028;-69
2022/11/18 00:55:21;;;;;;;3.25;1.88;;;10.10;85.60;;;;;;5036940;28;20059;-69
2022/11/18 00:57:46;;;;;;;3.83;2.20;;;10.10;85.60;;;;;;5038858;28;20032;-69
2022/11/18 01:00:12;;;;;;;4.47;2.22;;;10.10;85.50;;;;;;5037098;28;20037;-69
2022/11/18 01:02:38;;;;;;;4.07;1.98;;;10.20;85.50;;;;;;5040594;28;20017;-69
2022/11/18 01:05:04;;;;;;;4.18;1.90;;;10.20;85.40;;;;;;5035339;28;20035;-69
2022/11/18 01:07:31;;;;;;;6.88;2.45;;;10.20;85.30;;;;;;5035338;28;20048;-69
2022/11/18 01:09:57;;;;;;;8.60;2.65;;;10.20;85.30;;;;;;5037618;28;20037;-70
2022/11/18 01:15:07;;;;;;;5.53;2.30;;;10.20;85.50;;;;;;5038934;28;20538;-70
2022/11/18 01:17:33;;;;;;;5.53;2.50;;;10.20;85.50;;;;;;5035902;28;20021;-71
2022/11/18 01:19:59;;;;;;;5.45;2.25;;;10.10;85.50;;;;;;5036277;28;20136;-72
2022/11/18 01:22:25;;;;;;;3.65;2.10;;;10.10;85.60;;;;;;5040449;28;20077;-72
2022/11/18 01:24:51;;;;;;;5.22;2.22;;;10.10;85.60;;;;;;5036484;28;20554;-71
2022/11/18 01:27:16;;;;;;;4.85;2.10;;;10.10;86.00;;;;;;5034267;28;20036;-71
2022/11/18 01:29:42;;;;;;;4.25;2.35;;;10.10;85.50;;;;;;5036748;28;20033;-71
2022/11/18 01:32:07;;;;;;;4.20;2.40;;;10.10;85.50;;;;;;5037882;28;20447;-71
2022/11/18 01:34:33;;;;;;;6.25;2.40;;;10.20;85.50;;;;;;5042159;28;20025;-71
2022/11/18 01:36:59;;;;;;;5.45;2.22;;;10.10;85.40;;;;;;5039869;28;20074;-71
2022/11/18 01:39:25;;;;;;;3.20;2.00;;;10.10;85.60;;;;;;5041812;28;20028;-70
2022/11/18 01:41:51;;;;;;;4.28;2.30;;;10.20;85.60;;;;;;5036185;28;20025;-71
2022/11/18 01:44:54;;;;;;;4.43;2.03;;;10.20;85.50;;;;;;5042722;28;20082;-72
2022/11/18 01:47:20;;;;;;;4.75;2.00;;;10.20;85.40;;;;;;5034443;28;20059;-70
2022/11/18 01:49:46;;;;;;;3.45;2.00;;;10.20;85.30;;;;;;5034380;28;20075;-69
2022/11/18 01:52:13;;;;;;;2.65;1.70;;;10.30;85.30;;;;;;5034824;28;20036;-69
2022/11/18 01:54:42;;;;;;;4.00;2.03;;;10.30;85.30;;;;;;5037900;28;20024;-70
2022/11/18 01:57:13;;;;;;;4.25;2.42;;;10.30;85.10;;;;;;5035486;28;20036;-70
2022/11/18 01:59:41;;;;;;;3.58;2.15;;;10.20;85.20;;;;;;5034182;28;20025;-70
2022/11/18 02:02:11;;;;;;;3.03;2.13;;;10.20;85.30;;;;;;5035469;28;20128;-70
2022/11/18 02:04:39;;;;;;;3.78;2.25;;;10.20;85.40;;;;;;5038897;28;20086;-70
2022/11/18 02:07:07;;;;;;;4.55;2.10;;;10.20;85.50;;;;;;5036419;28;20030;-70
2022/11/18 02:09:32;;;;;;;4.28;2.42;;;10.10;85.50;;;;;;5035250;28;20064;-69
2022/11/18 02:11:58;;;;;;;4.03;2.20;;;10.20;85.50;;;;;;5036858;28;20049;-70
2022/11/18 02:14:33;;;;;;;4.10;2.00;;;10.20;85.50;;;;;;5037225;28;20614;-71
2022/11/18 02:17:03;;;;;;;3.65;2.03;;;10.20;85.40;;;;;;5035143;28;20057;-70
2022/11/18 02:20:22;;;;;;;4.65;2.22;;;10.20;85.40;;;;;;5036047;28;20104;-71
2022/11/18 02:23:40;;;;;;;3.42;2.20;;;10.30;85.50;;;;;;4997787;28;20130;-70
2022/11/18 02:26:25;;;;;;;9.57;4.97;;;10.20;85.30;;;;;;5011843;28;20428;-69
2022/11/18 02:29:02;;;;;;;9.05;4.47;;;10.20;85.30;;;;;;5045460;28;20021;-70
2022/11/18 02:31:48;;;;;;;5.38;3.13;;;10.20;85.50;;;;;;5037583;28;20026;-71
2022/11/18 02:34:31;;;;;;;4.07;2.42;;;10.20;85.60;;;;;;5038054;28;20021;-70
2022/11/18 02:37:01;;;;;;;6.03;2.97;;;10.20;85.60;;;;;;5038521;28;20032;-69
2022/11/18 02:39:35;;;;;;;5.40;2.65;;;10.20;85.70;;;;;;5037310;28;20029;-69
2022/11/18 02:42:06;;;;;;;5.50;2.38;;;10.10;85.80;;;;;;5044651;28;20047;-71
2022/11/18 02:44:33;;;;;;;3.17;2.22;;;10.10;86.00;;;;;;5043818;28;20030;-69
2022/11/18 02:47:01;;;;;;;4.18;2.08;;;10.10;86.00;;;;;;5034860;28;20148;-69
2022/11/18 02:49:40;;;;;;;4.30;2.33;;;10.10;86.00;;;;;;5039150;28;20117;-71
2022/11/18 02:52:08;;;;;;;3.72;2.30;;;10.10;86.10;;;;;;5039143;28;20021;-70
2022/11/18 02:54:37;;;;;;;4.55;2.70;;;10.10;86.00;;;;;;5039510;28;20049;-67
2022/11/18 02:57:03;;;;;;;4.38;2.22;;;10.20;86.10;;;;;;5042005;28;20045;-67
2022/11/18 02:59:29;;;;;;;5.10;2.50;;;10.20;86.00;;;;;;5043786;28;20096;-67
2022/11/18 03:01:55;;;;;;;9.23;4.30;;;10.20;85.90;;;;;;5043401;28;20025;-67
2022/11/18 03:04:23;;;;;;;6.95;3.08;;;10.20;85.90;;;;;;5037723;28;20048;-68
2022/11/18 03:07:06;;;;;;;3.63;2.50;;;10.20;86.00;;;;;;5042206;28;20120;-67
2022/11/18 03:09:36;;;;;;;4.82;2.20;;;10.30;86.00;;;;;;5041526;28;20486;-67
2022/11/18 03:12:25;;;;;;;4.47;2.25;;;10.30;85.80;;;;;;5040463;28;20021;-67
2022/11/18 03:14:59;;;;;;;5.35;2.25;;;10.30;85.80;;;;;;5041858;28;20076;-68
2022/11/18 03:17:52;;;;;;;4.65;2.22;;;10.30;85.70;;;;;;5040825;28;20017;-68
2022/11/18 03:20:24;;;;;;;4.05;2.40;;;10.30;85.70;;;;;;5040126;28;20037;-68
2022/11/18 03:22:59;;;;;;;4.80;2.60;;;10.30;85.80;;;;;;5041339;28;20091;-68
2022/11/18 03:25:58;;;;;;;3.97;2.20;;;10.30;85.70;;;;;;5040113;28;20035;-68
2022/11/18 03:28:47;;;;;;;4.40;2.40;;;10.30;86.50;;;;;;5042308;28;20053;-68
2022/11/18 03:31:21;;;;;;;5.53;2.53;;;10.40;85.80;;;;;;5037768;28;20427;-68
2022/11/18 03:34:02;;;;;;;5.07;2.53;;;10.40;85.80;;;;;;5051013;28;20533;-67
2022/11/18 03:36:35;;;;;;;3.80;2.10;;;10.40;85.80;;;;;;5036176;28;20025;-71
2022/11/18 03:39:05;;;;;;;3.20;2.30;;;10.40;85.80;;;;;;5038206;28;20448;-68
2022/11/18 03:41:36;;;;;;;6.43;2.50;;;10.50;85.80;;;;;;5036545;28;20059;-67
2022/11/18 03:44:20;;;;;;;5.05;2.45;;;10.50;85.70;;;;;;5044223;28;20017;-67
2022/11/18 03:46:53;;;;;;;7.53;3.10;;;10.40;85.60;;;;;;5037913;28;20029;-67
2022/11/18 03:49:36;;;;;;;6.18;2.65;;;10.40;85.80;;;;;;5039773;28;20788;-67
2022/11/18 03:52:08;;;;;;;5.72;2.53;;;10.40;86.00;;;;;;5037226;28;20029;-68
2022/11/18 03:54:38;;;;;;;5.65;2.60;;;10.40;86.00;;;;;;5037667;28;20083;-70
2022/11/18 03:57:11;;;;;;;5.70;2.80;;;10.40;86.10;;;;;;5038005;28;20041;-69
2022/11/18 03:59:44;;;;;;;7.25;2.72;;;10.40;86.20;;;;;;5034363;28;20025;-70
2022/11/18 04:02:19;;;;;;;7.00;3.05;;;10.40;86.30;;;;;;5036154;28;20145;-69
2022/11/18 04:04:48;;;;;;;5.38;3.00;;;10.40;86.50;;;;;;5037605;28;20609;-69
2022/11/18 04:07:20;;;;;;;5.35;2.70;;;10.40;86.50;;;;;;5035301;28;20025;-68
2022/11/18 04:09:57;;;;;;;4.70;2.47;;;10.40;86.50;;;;;;5033139;28;20344;-69
2022/11/18 04:12:28;;;;;;;4.85;2.40;;;10.40;86.50;;;;;;5037111;28;20017;-70
2022/11/18 04:14:54;;;;;;;5.57;2.97;;;10.40;86.50;;;;;;5039052;28;20021;-69
2022/11/18 04:17:22;;;;;;;5.80;2.92;;;10.40;86.50;;;;;;5038380;28;20025;-69
2022/11/18 04:19:48;;;;;;;4.25;2.22;;;10.50;86.50;;;;;;5039563;28;20627;-70
2022/11/18 04:22:15;;;;;;;5.32;2.80;;;10.50;86.40;;;;;;5041627;28;20029;-69
2022/11/18 04:24:40;;;;;;;6.53;2.65;;;10.50;86.40;;;;;;5038985;28;20065;-68
2022/11/18 04:27:06;;;;;;;4.18;2.40;;;10.50;86.50;;;;;;5041651;28;20044;-68
2022/11/18 04:29:33;;;;;;;4.85;2.20;;;10.50;86.50;;;;;;5041069;28;20037;-69
2022/11/18 04:32:00;;;;;;;4.95;2.85;;;10.50;86.50;;;;;;5037034;28;20078;-69
2022/11/18 04:34:27;;;;;;;6.95;2.63;;;10.50;86.50;;;;;;5035762;28;20026;-69
2022/11/18 04:36:53;;;;;;;4.72;2.60;;;10.50;86.60;;;;;;5038490;28;20021;-70
2022/11/18 04:39:19;;;;;;;5.70;3.08;;;10.50;86.60;;;;;;5038721;28;20044;-69
2022/11/18 04:41:54;;;;;;;5.55;2.97;;;10.50;86.70;;;;;;5037758;28;20166;-69
2022/11/18 04:44:24;;;;;;;6.15;2.78;;;10.60;86.70;;;;;;5035232;28;20024;-70
2022/11/18 04:46:50;;;;;;;5.47;3.00;;;10.60;86.70;;;;;;5038942;28;20211;-69
2022/11/18 04:49:16;;;;;;;5.35;2.65;;;10.50;86.70;;;;;;5041352;28;20033;-69
2022/11/18 04:51:42;;;;;;;5.53;2.72;;;10.50;86.80;;;;;;5037893;28;20392;-69
2022/11/18 04:54:09;;;;;;;3.60;2.40;;;10.50;86.70;;;;;;5039045;28;20029;-69
2022/11/18 04:56:34;;;;;;;6.07;3.30;;;10.50;86.80;;;;;;5038658;28;20025;-69
2022/11/18 04:59:01;;;;;;;5.88;2.85;;;10.50;86.90;;;;;;5035597;28;20641;-68
2022/11/18 05:01:28;;;;;;;5.60;2.80;;;10.50;87.00;;;;;;5034316;28;20083;-70
2022/11/18 05:03:54;;;;;;;6.88;2.72;;;10.50;87.10;;;;;;5039628;28;20440;-69
2022/11/18 05:06:20;;;;;;;6.90;3.00;;;10.40;87.10;;;;;;5044565;28;20100;-68
2022/11/18 05:08:46;;;;;;;4.32;2.40;;;10.50;87.30;;;;;;5034973;28;20103;-69
2022/11/18 05:13:55;;;;;;;6.03;2.70;;;10.50;87.20;;;;;;5041993;28;20035;-70
2022/11/18 05:16:21;;;;;;;4.80;2.53;;;10.60;87.20;;;;;;5036985;28;20036;-70
2022/11/18 05:18:47;;;;;;;3.72;2.40;;;10.60;87.10;;;;;;5039956;28;20103;-69
2022/11/18 05:21:12;;;;;;;4.80;2.60;;;10.60;87.00;;;;;;5036492;28;20033;-69
2022/11/18 05:23:38;;;;;;;4.78;2.47;;;10.60;86.90;;;;;;5039292;28;20086;-68
2022/11/18 05:26:08;;;;;;;5.00;2.42;;;10.70;86.90;;;;;;5040405;28;20026;-70
2022/11/18 05:28:34;;;;;;;4.00;2.70;;;10.70;86.90;;;;;;5038435;28;20051;-71
2022/11/18 05:31:05;;;;;;;2.90;2.30;;;10.70;86.80;;;;;;5043279;28;20480;-71
2022/11/18 05:33:30;;;;;;;5.32;2.33;;;10.70;86.90;;;;;;5038531;28;20021;-71
2022/11/18 05:35:56;;;;;;;5.45;2.80;;;10.70;86.80;;;;;;5041726;28;20017;-69
2022/11/18 05:38:21;;;;;;;4.25;2.38;;;10.70;86.80;;;;;;5038693;28;20074;-69
2022/11/18 05:40:47;;;;;;;3.95;2.30;;;10.70;86.70;;;;;;5039241;28;20021;-69
2022/11/18 05:43:12;;;;;;;4.55;2.60;;;10.70;86.60;;;;;;5039569;28;20656;-70
2022/11/18 05:45:39;;;;;;;5.90;2.75;;;10.70;86.60;;;;;;5038472;28;20570;-69
2022/11/18 05:48:06;;;;;;;5.75;2.78;;;10.60;86.70;;;;;;5038820;28;20033;-70
2022/11/18 05:50:35;;;;;;;4.65;2.42;;;10.60;86.90;;;;;;5036471;28;20033;-70
2022/11/18 05:53:02;;;;;;;4.60;2.55;;;10.60;87.00;;;;;;5036566;28;20492;-70
2022/11/18 05:55:38;;;;;;;4.68;2.28;;;10.60;86.90;;;;;;5035432;28;20064;-70
2022/11/18 05:58:04;;;;;;;4.85;2.40;;;10.60;87.00;;;;;;5036413;28;20361;-70
2022/11/18 06:00:31;;;;;;;5.45;2.63;;;10.60;87.00;;;;;;5043077;28;20080;-69
2022/11/18 06:02:57;;;;;;;4.47;2.70;;;10.60;86.90;;;;;;5032210;28;20025;-70
2022/11/18 06:05:25;;;;;;;4.13;2.38;;;10.60;86.90;;;;;;5039400;28;20025;-70
2022/11/18 06:07:52;;;;;;;4.38;2.60;;;10.60;86.90;;;;;;5034177;28;20036;-70
2022/11/18 06:10:22;;;;;;;4.32;2.38;;;10.60;86.90;;;;;;5038182;28;20025;-71
2022/11/18 06:12:51;;;;;;;3.13;2.33;;;10.60;87.00;;;;;;5037474;28;20021;-71
2022/11/18 06:15:24;;;;;;;3.83;2.58;;;10.60;87.70;;;;;;5033759;28;20071;-71
2022/11/18 06:17:58;;;;;;;4.15;2.45;;;10.60;87.10;;;;;;5041610;28;20496;-71
2022/11/18 06:20:25;;;;;;;4.97;2.35;;;10.60;87.20;;;;;;5038352;28;20021;-71
2022/11/18 06:22:53;;;;;;;4.50;2.47;;;10.60;87.10;;;;;;5034947;28;20033;-71
2022/11/18 06:25:18;;;;;;;4.75;2.10;;;10.60;87.00;;;;;;5042395;28;20094;-71
2022/11/18 06:27:46;;;;;;;4.38;2.20;;;10.60;87.00;;;;;;5041304;28;20108;-71
2022/11/18 06:30:12;;;;;;;4.05;2.20;;;10.60;87.00;;;;;;5040876;28;20018;-71
2022/11/18 06:32:38;;;;;;;5.80;2.50;;;10.60;87.00;;;;;;5035150;28;20530;-70
2022/11/18 06:35:04;;;;;;;4.00;2.20;;;10.50;86.90;;;;;;5035633;28;20021;-72
2022/11/18 06:37:29;;;;;;;3.28;2.28;;;10.50;86.90;;;;;;5038120;28;20048;-72
2022/11/18 06:39:55;;;;;;;4.32;2.47;;;10.50;86.90;;;;;;5044167;28;20535;-73
2022/11/18 06:45:05;;;;;;;4.05;2.47;;;10.50;86.80;;;;;;5040872;28;20040;-73
2022/11/18 06:47:31;;;;;;;4.90;2.67;;;10.50;86.90;;;;;;5037981;28;20029;-73
2022/11/18 06:49:56;;;;;;;3.65;2.28;;;10.40;86.90;;;;;;5040223;28;20044;-72
2022/11/18 06:52:23;;;;;;;3.95;2.45;;;10.40;86.90;;;;;;5039401;28;20022;-72
2022/11/18 06:54:49;;;;;;;4.60;2.60;;;10.40;87.00;;;;;;5039788;28;20482;-72
2022/11/18 06:57:15;;;;;;;4.22;2.22;;;10.40;87.00;;;;;;5032851;28;20037;-72
2022/11/18 06:59:40;;;;;;;3.78;2.50;;;10.40;87.00;;;;;;5036317;28;20471;-71
2022/11/18 07:02:06;;;;;;;4.88;2.60;;;10.40;87.00;;;;;;5038143;28;20033;-71
2022/11/18 07:04:33;;;;;;;3.80;2.42;;;10.40;87.00;;;;;;5034796;28;20026;-72
2022/11/18 07:06:59;;;;;;;4.03;2.38;;;10.40;87.00;;;;;;5042185;28;20025;-72
2022/11/18 07:09:25;;;;;;;4.03;2.42;;;10.40;87.00;;;;;;5044270;28;20390;-73
2022/11/18 07:11:50;;;;;;;4.20;2.42;;;10.40;86.90;;;;;;5042509;28;20597;-70
2022/11/18 07:14:16;;;;;;;3.75;2.42;;;10.40;87.00;;;;;;5041503;28;20029;-72
2022/11/18 07:16:41;;;;;;;5.80;2.60;;;10.40;86.90;;;;;;5044143;28;20013;-72
2022/11/18 07:19:10;;;;;;;6.25;3.03;;;10.30;86.90;;;;;;5045869;28;20025;-72
2022/11/18 07:21:36;;;;;;;5.05;3.22;;;10.20;87.20;;;;;;5049621;28;20021;-72
2022/11/18 07:24:07;;;;;;;6.10;2.97;;;10.20;87.50;;;;;;5039630;28;20063;-72
2022/11/18 07:26:34;;;;;;;5.45;3.33;;;10.20;87.60;;;;;;5040689;28;20029;-72
2022/11/18 07:29:00;;;;;;;4.43;3.13;;;10.20;87.70;;;;;;5038749;28;20027;-71
2022/11/18 07:31:26;;;;;;;5.97;2.80;;;10.10;87.80;;;;;;5042542;28;20020;-69
2022/11/18 07:33:55;;;;;;;4.70;2.70;;;10.10;88.00;;;;;;5038668;28;20075;-71
2022/11/18 07:36:23;;;;;;;3.20;2.45;;;10.20;88.10;;;;;;5041806;28;20543;-71
2022/11/18 07:38:49;;;;;;;4.13;2.42;;;10.20;88.00;;;;;;5036092;28;20381;-71
2022/11/18 07:41:20;;;;;;;6.38;2.75;;;10.20;88.00;;;;;;5040592;28;20030;-71
2022/11/18 07:43:49;;;;;;;3.92;2.70;;;10.20;88.00;;;;;;5042340;28;20025;-70
2022/11/18 07:46:20;;;;;;;5.30;2.80;;;10.30;87.90;;;;;;5038245;28;20025;-71
2022/11/18 07:48:48;;;;;;;5.30;2.80;;;10.30;87.70;;;;;;5039486;28;20092;-71
2022/11/18 07:51:15;;;;;;;4.85;2.10;;;10.30;87.70;;;;;;5043928;28;20033;-71
2022/11/18 07:53:42;;;;;;;2.92;1.90;;;10.40;87.60;;;;;;5039498;28;20021;-71
2022/11/18 07:56:08;;;;;;;4.10;3.00;;;10.40;87.50;;;;;;5038483;28;20492;-71
2022/11/18 07:58:34;;;;;;;4.20;2.70;;;10.30;87.50;;;;;;5043459;28;20033;-71
2022/11/18 08:01:17;;;;;;;4.45;2.90;;;10.30;87.50;;;;;;5042498;28;20025;-71
2022/11/18 08:03:44;;;;;;;5.32;2.92;;;10.30;87.60;;;;;;5037639;28;20037;-70
2022/11/18 08:06:11;;;;;;;4.00;2.80;;;10.30;87.50;;;;;;5045782;28;20032;-71
2022/11/18 08:08:37;;;;;;;6.97;3.00;;;10.30;87.50;;;;;;5039707;28;20064;-72
2022/11/18 08:11:05;;;;;;;5.43;2.97;;;10.30;87.40;;;;;;5035707;28;20094;-71
2022/11/18 08:13:32;;;;;;;5.40;3.20;;;10.30;87.40;;;;;;5042613;28;20021;-72
2022/11/18 08:15:57;;;;;;;6.15;3.20;;;10.30;87.40;;;;;;5036933;28;20029;-71
2022/11/18 08:18:23;;;;;;;5.47;3.30;;;10.40;87.40;;;;;;5040120;28;20025;-71
2022/11/18 08:20:49;;;;;;;3.85;2.50;;;10.40;87.40;;;;;;5039825;28;20021;-72
2022/11/18 08:23:15;;;;;;;5.78;3.85;;;10.40;87.20;;;;;;5036426;28;20480;-72
2022/11/18 08:25:43;;;;;;;4.72;2.80;;;10.40;87.10;;;;;;5041232;28;20032;-71
2022/11/18 08:28:09;;;;;;;6.68;3.60;;;10.40;87.20;;;;;;5042975;28;20082;-72
2022/11/18 08:30:35;;;;;;;7.45;3.53;;;10.40;87.20;;;;;;5039901;28;20025;-71
2022/11/18 08:33:01;;;;;;;5.45;2.92;;;10.30;87.20;;;;;;5038561;28;20441;-72
2022/11/18 08:35:27;;;;;;;5.70;3.15;;;10.30;87.40;;;;;;5042876;28;20474;-72
2022/11/18 08:37:54;;;;;;;4.90;3.00;;;10.30;87.30;;;;;;5039733;28;20731;-72
2022/11/18 08:40:20;;;;;;;5.70;2.92;;;10.40;87.40;;;;;;5040764;28;20036;-71
2022/11/18 08:42:45;;;;;;;5.80;2.80;;;10.40;87.30;;;;;;5048055;28;20036;-72
2022/11/18 08:45:11;;;;;;;5.78;3.35;;;10.40;87.20;;;;;;5039606;28;20017;-71
2022/11/18 08:47:37;;;;;;;7.07;3.70;;;10.50;87.20;;;;;;5036468;28;20671;-72
2022/11/18 08:50:04;;;;;;;7.13;3.42;;;10.40;87.00;;;;;;5046165;28;20097;-71
2022/11/18 08:52:30;;;;;;;7.07;4.20;;;10.40;86.90;;;;;;5050379;28;20025;-72
2022/11/18 08:54:55;;;;;;;8.40;3.72;;;10.30;86.90;;;;;;5039714;28;20111;-72
2022/11/18 08:57:21;;;;;;;6.28;3.35;;;10.40;87.00;;;;;;5037069;28;20403;-72
2022/11/18 08:59:46;;;;;;;8.80;4.50;;;10.40;87.00;;;;;;5043452;28;20028;-72
2022/11/18 09:02:18;;;;;;;7.18;3.83;;;10.40;86.80;;;;;;5045736;28;20044;-71
2022/11/18 09:04:45;;;;;;;9.00;3.70;;;10.40;86.80;;;;;;5043891;28;20056;-71
2022/11/18 09:07:10;;;;;;;5.03;3.30;;;10.40;86.80;;;;;;5049710;28;20047;-72
2022/11/18 09:09:36;;;;;;;4.82;3.50;;;10.40;86.80;;;;;;5051967;28;20052;-72
2022/11/18 09:12:01;;;;;;;6.18;3.75;;;10.40;86.80;;;;;;5047876;28;20021;-72
2022/11/18 09:14:27;;;;;;;5.55;3.03;;;10.40;87.40;;;;;;5034199;28;20026;-72
2022/11/18 09:16:52;;;;;;;7.22;4.25;;;10.40;86.70;;;;;;5043223;28;20705;-71
2022/11/18 09:19:18;;;;;;;6.53;3.60;;;10.50;86.70;;;;;;5046498;28;20052;-71
2022/11/18 09:21:44;;;;;;;4.80;3.42;;;10.50;86.50;;;;;;5043255;28;20024;-72
2022/11/18 09:24:10;;;;;;;5.82;3.47;;;10.50;86.40;;;;;;5039445;28;20060;-71
2022/11/18 09:26:36;;;;;;;5.57;3.25;;;10.60;86.30;;;;;;5033261;28;20013;-71
2022/11/18 09:29:03;;;;;;;6.28;3.20;;;10.70;86.20;;;;;;5038693;28;20032;-72
2022/11/18 09:31:29;;;;;;;6.88;3.25;;;10.70;86.10;;;;;;5041354;28;20017;-71
2022/11/18 09:33:54;;;;;;;5.90;3.42;;;10.70;85.90;;;;;;5037959;28;20476;-72
2022/11/18 09:36:24;;;;;;;6.47;3.65;;;10.80;85.80;;;;;;5041774;28;20044;-71
2022/11/18 09:38:50;;;;;;;5.50;3.25;;;10.80;85.60;;;;;;5043733;28;20027;-71
2022/11/18 09:41:27;;;;;;;6.22;3.50;;;10.80;85.60;;;;;;5035963;28;20419;-71
2022/11/18 09:44:07;;;;;;;5.32;3.58;;;10.80;85.50;;;;;;5040372;28;20033;-72
2022/11/18 09:46:45;;;;;;;5.65;3.78;;;10.80;85.30;;;;;;5040468;28;20028;-71
2022/11/18 09:49:15;;;;;;;6.45;3.30;;;10.80;85.20;;;;;;5046055;28;20545;-72
2022/11/18 09:51:46;;;;;;;8.38;3.78;;;10.80;85.20;;;;;;5039270;28;20104;-71
2022/11/18 09:54:24;;;;;;;5.27;3.03;;;10.90;85.20;;;;;;5044244;28;20025;-72
2022/11/18 09:56:51;;;;;;;7.03;3.78;;;10.90;85.10;;;;;;5045858;28;20045;-71
2022/11/18 09:59:20;;;;;;;5.30;3.45;;;10.90;85.00;;;;;;5045216;28;20025;-71
2022/11/18 10:01:48;;;;;;;6.55;3.65;;;10.90;85.60;;;;;;5039484;28;20023;-72
2022/11/18 10:04:16;;;;;;;5.55;3.80;;;10.90;84.90;;;;;;5044960;28;20036;-72
2022/11/18 10:06:42;;;;;;;5.95;3.58;;;10.90;84.90;;;;;;5040775;28;20375;-72
2022/11/18 10:09:08;;;;;;;5.07;3.00;;;10.90;84.90;;;;;;5047891;28;20017;-72
2022/11/18 10:11:51;;;;;;;6.00;3.40;;;10.90;84.80;;;;;;5047525;28;20380;-71
2022/11/18 10:14:22;;;;;;;4.78;3.00;;;10.90;84.80;;;;;;5032971;28;20032;-72
2022/11/18 10:16:56;;;;;;;6.80;3.30;;;11.00;84.70;;;;;;5040919;28;20028;-71
2022/11/18 10:19:43;;;;;;;6.15;3.33;;;11.00;84.50;;;;;;5043041;28;20036;-71
2022/11/18 10:22:44;;;;;;;5.80;3.10;;;11.00;84.40;;;;;;5045347;28;20104;-71
2022/11/18 10:25:15;;;;;;;4.13;3.22;;;10.90;84.30;;;;;;5038930;28;20124;-72
2022/11/18 10:27:43;;;;;;;10.35;4.53;;;11.00;84.40;;;;;;5033174;28;20041;-71
2022/11/18 10:30:16;;;;;;;7.20;3.70;;;10.90;84.20;;;;;;5039978;28;20392;-71
2022/11/18 10:33:02;;;;;;;5.43;3.38;;;10.90;84.20;;;;;;5041240;28;20032;-72
2022/11/18 10:35:32;;;;;;;4.80;3.05;;;10.90;84.30;;;;;;5048266;28;20520;-71
2022/11/18 10:38:14;;;;;;;4.97;3.33;;;10.90;84.30;;;;;;5042386;28;20036;-72
2022/11/18 10:40:55;;;;;;;6.68;3.15;;;10.90;84.30;;;;;;5042862;28;20028;-71
2022/11/18 10:43:45;;;;;;;4.60;3.30;;;11.00;84.30;;;;;;5047358;28;20032;-72
2022/11/18 10:46:28;;;;;;;8.02;3.92;;;10.90;84.30;;;;;;5047315;28;20033;-72
2022/11/18 10:49:16;;;;;;;5.45;3.45;;;11.00;84.40;;;;;;5042034;28;20116;-72
2022/11/18 10:51:46;;;;;;;5.50;3.25;;;11.00;84.40;;;;;;5046005;28;20029;-71
2022/11/18 10:54:22;;;;;;;6.68;3.58;;;11.00;84.40;;;;;;5037294;28;20083;-72
2022/11/18 10:57:09;;;;;;;8.30;3.83;;;11.00;84.40;;;;;;5043109;28;20024;-71
2022/11/18 10:59:45;;;;;;;5.65;3.65;;;11.00;84.30;;;;;;5040191;28;20459;-71
2022/11/18 11:02:34;;;;;;;7.53;3.95;;;11.00;84.20;;;;;;5046174;28;20033;-72
2022/11/18 11:05:15;;;;;;;8.90;4.25;;;11.00;84.20;;;;;;5041846;28;20135;-72
2022/11/18 11:07:41;;;;;;;6.17;3.90;;;11.00;84.00;;;;;;5049531;28;20059;-72
2022/11/18 11:10:09;;;;;;;7.10;4.28;;;10.90;84.20;;;;;;5043066;28;20044;-72
2022/11/18 11:12:45;;;;;;;8.05;4.30;;;10.90;84.40;;;;;;5052008;28;20059;-72
2022/11/18 11:15:23;;;;;;;8.98;4.50;;;10.90;84.40;;;;;;5039437;28;20021;-72
2022/11/18 11:21:12;;;;;;;7.60;3.90;;;11.00;84.80;;;;;;5038153;28;20043;-72
2022/11/18 11:23:38;;;;;;;9.60;4.50;;;11.10;84.50;;;;;;5043706;28;20439;-72
2022/11/18 11:26:08;;;;;;;7.85;4.25;;;11.20;84.30;;;;;;5046345;28;20036;-72
2022/11/18 11:28:44;;;;;;;5.50;3.75;;;11.20;84.10;;;;;;5047105;28;20029;-72
2022/11/18 11:31:21;;;;;;;7.25;4.50;;;11.20;83.90;;;;;;5042196;28;20568;-72
2022/11/18 11:34:04;;;;;;;8.10;3.92;;;11.20;83.70;;;;;;5049629;28;20104;-71
2022/11/18 11:36:30;;;;;;;7.88;3.90;;;11.30;83.70;;;;;;5042326;28;20077;-71
2022/11/18 11:39:31;;;;;;;4.72;3.80;;;11.30;83.60;;;;;;5037243;28;20053;-71
2022/11/18 11:42:00;;;;;;;8.75;4.38;;;11.30;83.60;;;;;;5049677;28;20107;-72
2022/11/18 11:44:46;;;;;;;8.13;4.18;;;11.30;83.50;;;;;;5042210;28;20036;-72
2022/11/18 11:50:28;;;;;;;9.73;4.90;;;11.40;83.20;;;;;;5046301;28;20526;-72
2022/11/18 11:53:18;;;;;;;8.07;4.43;;;11.50;83.20;;;;;;5030135;28;20029;-71
2022/11/18 11:56:18;;;;;;;10.77;4.60;;;11.50;83.00;;;;;;5044650;28;20017;-72
2022/11/18 11:59:02;;;;;;;7.05;3.90;;;11.80;82.80;;;;;;5042086;28;20043;-72
2022/11/18 12:02:09;;;;;;;5.97;3.58;;;12.50;80.60;;;;;;5045027;28;20500;-71
2022/11/18 12:04:47;;;;;;;6.55;3.88;;;12.40;80.10;;;;;;5049497;28;20041;-72
2022/11/18 12:07:24;;;;;;;7.20;4.30;;;12.40;80.60;;;;;;5037926;28;20400;-69
2022/11/18 12:10:23;;;;;;;5.80;3.60;;;12.30;80.60;;;;;;5036044;28;20044;-71
2022/11/18 12:13:10;;;;;;;6.00;3.15;;;12.30;81.10;;;;;;5045313;28;20021;-71
2022/11/18 12:15:51;;;;;;;6.97;3.78;;;12.80;80.40;;;;;;5043931;28;20013;-71
2022/11/18 12:18:41;;;;;;;7.78;4.45;;;12.50;79.60;;;;;;5035944;28;20032;-71
2022/11/18 12:21:06;;;;;;;5.72;3.53;;;12.30;80.40;;;;;;5037089;28;20038;-71
2022/11/18 12:23:33;;;;;;;6.72;4.07;;;12.20;80.90;;;;;;5045625;28;20101;-71
2022/11/18 12:26:08;;;;;;;8.10;3.90;;;12.20;80.90;;;;;;5045597;28;20455;-71
2022/11/18 12:28:40;;;;;;;6.80;3.90;;;12.20;81.10;;;;;;5046264;28;20040;-71
2022/11/18 12:31:17;;;;;;;6.82;4.00;;;12.10;81.10;;;;;;5041398;28;20624;-71
2022/11/18 12:33:49;;;;;;;7.32;3.63;;;12.10;81.20;;;;;;5049488;28;20407;-71
2022/11/18 12:36:35;;;;;;;4.75;3.38;;;12.10;81.50;;;;;;5045495;28;20100;-71
2022/11/18 12:39:26;;;;;;;7.85;3.72;;;12.30;81.00;;;;;;5046914;28;20025;-72
2022/11/18 12:44:50;;;;;;;6.75;3.70;;;12.30;80.60;;;;;;5046371;28;20573;-71
2022/11/18 12:47:35;;;;;;;6.57;3.63;;;12.30;80.70;;;;;;5040006;28;20473;-71
2022/11/18 12:50:01;;;;;;;6.03;3.63;;;12.40;80.70;;;;;;5036325;28;20063;-71
2022/11/18 12:52:30;;;;;;;7.35;3.92;;;12.40;80.60;;;;;;5035808;28;20057;-71
2022/11/18 12:54:59;;;;;;;10.10;4.95;;;12.40;80.50;;;;;;5041519;28;20131;-71
2022/11/18 12:57:34;;;;;;;6.75;3.92;;;12.30;80.30;;;;;;5039025;28;20025;-71
2022/11/18 13:00:22;;;;;;;4.93;3.72;;;12.40;80.30;;;;;;5049059;28;20037;-71
2022/11/18 13:02:55;;;;;;;7.78;3.90;;;12.40;80.30;;;;;;5033836;28;20128;-71
2022/11/18 13:05:25;;;;;;;6.63;3.65;;;12.40;80.30;;;;;;5040895;28;20040;-71
2022/11/18 13:08:13;;;;;;;7.25;4.05;;;12.40;80.20;;;;;;5035435;28;20041;-71
2022/11/18 13:10:50;;;;;;;7.18;3.75;;;12.40;80.20;;;;;;5042304;28;20037;-71
2022/11/18 13:13:27;;;;;;;7.13;3.95;;;12.40;80.20;;;;;;5041565;28;20021;-71
2022/11/18 13:18:50;;;;;;;7.35;4.20;;;12.40;80.00;;;;;;5039467;28;20044;-70
2022/11/18 13:24:15;;;;;;;6.82;4.00;;;12.30;79.80;;;;;;5043354;28;20565;-71
2022/11/18 13:26:42;;;;;;;8.27;3.93;;;12.20;79.90;;;;;;5038589;28;20025;-71
2022/11/18 13:29:27;;;;;;;5.50;3.50;;;12.20;80.10;;;;;;5032914;28;20063;-71
2022/11/18 13:32:08;;;;;;;7.13;4.07;;;12.30;80.20;;;;;;5047325;28;20086;-71
2022/11/18 13:34:47;;;;;;;6.35;3.80;;;12.20;80.10;;;;;;5041501;28;20017;-71